Aldan, Pennsylvania
Current Conditions -  °F | °C
As of 3:54 PM on Saturday 22 Nov 2014 (Local Time) from KPHL Reporting Station
Broken Clouds Broken Clouds  
Wind Chill: 39°   Ceiling: 9000
Heat Index: 45°   Visibility: 10mi
Dew Point: 16°   Wind: 13mph
Humidity: 31%   Direction: 230°SW
Pressure: 30.32"   Gusts: NA
Location:  39.9228°N, 75.2984°W
Report Text: KPHL 222054Z 23011KT 10SM SCT070 BKN090 BKN200 BKN250 07/M09 A3032 RMK AO2 SLP268 T00721089 56023 $
Loading
Personal Weather Stations






























Interactive Weather Map New forecast layout! Learn more

10-Day Weather Forecast

Advertisements
Track Severe Weather on mobile